Time;durP1;ratioP1;P1;durP2;ratioP2;P2;SDS_P1;SDS_P2;PMS_P1;PMS_P2;Temp;Humidity;BMP_temperature;BMP_pressure;BME280_temperature;BME280_humidity;BME280_pressure;Samples;Min_cycle;Max_cycle;Signal;HPM_P1;HPM_P2
2023/08/27 00:00:21;;;;;;;;;1.00;1.00;;;;;18.78;57.32;100721.88;5057259;28;45294;-45
2023/08/27 00:02:47;;;;;;;;;2.00;2.00;;;;;18.81;57.40;100718.78;5056926;28;46080;-44
2023/08/27 00:05:13;;;;;;;;;2.00;2.00;;;;;18.82;57.48;100718.56;5056989;28;45427;-45
2023/08/27 00:07:38;;;;;;;;;5.00;3.00;;;;;18.85;57.20;100711.94;5055995;28;45341;-43
2023/08/27 00:10:04;;;;;;;;;2.00;2.00;;;;;18.84;57.66;100715.69;5057241;28;45657;-45
2023/08/27 00:12:30;;;;;;;;;2.00;2.00;;;;;18.85;58.24;100710.09;5056566;28;45335;-44
2023/08/27 00:14:55;;;;;;;;;1.25;1.25;;;;;18.86;58.59;100714.44;5056870;28;45336;-43
2023/08/27 00:17:21;;;;;;;;;1.00;1.00;;;;;18.85;58.84;100698.47;5056674;28;45374;-45
2023/08/27 00:19:47;;;;;;;;;2.00;2.00;;;;;18.84;59.28;100703.03;5057124;28;45196;-45
2023/08/27 00:22:12;;;;;;;;;4.00;2.00;;;;;18.80;59.34;100695.56;5056153;28;46678;-44
2023/08/27 00:24:38;;;;;;;;;3.00;2.00;;;;;18.80;59.33;100698.25;5056605;28;45261;-44
2023/08/27 00:27:04;;;;;;;;;2.00;1.25;;;;;18.80;59.59;100698.25;5056015;28;45334;-45
2023/08/27 00:29:29;;;;;;;;;1.50;1.50;;;;;18.75;60.00;100698.88;5056937;28;45472;-44
2023/08/27 00:31:54;;;;;;;;;3.50;1.50;;;;;18.78;59.87;100708.38;5056439;28;45386;-45
2023/08/27 00:34:21;;;;;;;;;2.50;2.00;;;;;18.77;60.41;100696.78;5056401;28;45398;-45
2023/08/27 00:36:47;;;;;;;;;3.75;1.25;;;;;18.70;60.11;100687.81;5056579;28;45387;-45
2023/08/27 00:39:12;;;;;;;;;0.50;0.50;;;;;18.70;60.25;100691.34;5056706;28;45462;-43
2023/08/27 00:41:38;;;;;;;;;2.00;2.00;;;;;18.70;60.42;100688.66;5056475;28;46101;-45
2023/08/27 00:44:03;;;;;;;;;1.00;1.00;;;;;18.66;60.60;100692.75;5056253;28;45453;-45
2023/08/27 00:46:29;;;;;;;;;3.00;2.00;;;;;18.67;60.85;100697.13;5056513;28;45290;-45
2023/08/27 00:48:54;;;;;;;;;4.50;1.00;;;;;18.63;61.03;100697.75;5056551;28;45490;-44
2023/08/27 00:51:20;;;;;;;;;0.00;0.00;;;;;18.61;61.31;100697.91;5056289;28;46117;-46
2023/08/27 00:53:46;;;;;;;;;1.75;1.00;;;;;18.57;60.80;100710.13;5056186;28;45311;-43
2023/08/27 00:56:11;;;;;;;;;2.00;2.00;;;;;18.57;61.48;100707.44;5056480;28;45418;-42
2023/08/27 00:58:37;;;;;;;;;2.00;2.00;;;;;18.54;61.56;100707.00;5056644;28;45307;-44
2023/08/27 01:01:04;;;;;;;;;1.75;1.75;;;;;18.51;61.79;100713.63;5055846;28;47326;-45
2023/08/27 01:03:30;;;;;;;;;2.00;2.00;;;;;18.48;61.44;100711.31;5056046;28;45347;-47
2023/08/27 01:05:56;;;;;;;;;3.00;2.25;;;;;18.48;61.71;100714.03;5056244;28;45418;-45
2023/08/27 01:08:33;;;;;;;;;1.00;1.00;;;;;18.44;61.60;100700.13;5056359;28;45459;-46
2023/08/27 01:11:16;;;;;;;;;0.50;0.50;;;;;18.45;61.30;100712.53;5055900;28;45740;-49
2023/08/27 01:13:52;;;;;;;;;3.25;1.00;;;;;18.41;60.67;100705.06;5055706;28;45440;-44
2023/08/27 01:16:21;;;;;;;;;1.75;1.75;;;;;18.35;60.50;100703.19;5056260;28;45296;-45
2023/08/27 01:18:49;;;;;;;;;1.00;1.00;;;;;18.36;60.62;100707.53;5058517;28;45519;-43
2023/08/27 01:21:24;;;;;;;;;2.25;1.75;;;;;18.32;59.91;100700.88;5059406;28;45678;-44
2023/08/27 01:23:50;;;;;;;;;0.25;0.25;;;;;18.29;60.44;100704.81;5059322;28;46095;-42
2023/08/27 01:26:31;;;;;;;;;2.00;1.75;;;;;18.23;60.42;100702.06;5059655;28;45300;-44
2023/08/27 01:29:28;;;;;;;;;1.75;1.00;;;;;18.22;60.41;100708.50;5058216;28;45471;-43
2023/08/27 01:32:19;;;;;;;;;1.00;1.00;;;;;18.18;60.54;100706.19;5058919;28;46101;-42
2023/08/27 01:34:46;;;;;;;;;1.25;1.00;;;;;18.16;60.83;100696.63;5059263;28;45433;-43
2023/08/27 01:37:13;;;;;;;;;1.00;1.00;;;;;18.12;61.29;100696.22;5059254;28;45544;-44
2023/08/27 01:39:38;;;;;;;;;1.50;0.00;;;;;18.12;60.94;100698.91;5059573;28;45285;-44
2023/08/27 01:42:04;;;;;;;;;0.00;0.00;;;;;18.11;61.27;100694.53;5059212;28;45650;-45
2023/08/27 01:44:30;;;;;;;;;0.00;0.00;;;;;18.08;60.92;100694.13;5058954;28;45378;-44
2023/08/27 01:46:55;;;;;;;;;1.00;0.00;;;;;18.09;61.18;100695.78;5059297;28;45353;-45
2023/08/27 01:49:21;;;;;;;;;2.00;0.75;;;;;18.10;60.70;100690.19;5059135;28;45451;-44
2023/08/27 01:51:46;;;;;;;;;1.75;1.00;;;;;18.09;61.05;100696.59;5059154;28;46137;-46
2023/08/27 01:54:12;;;;;;;;;1.00;1.00;;;;;18.09;60.57;100696.59;5058842;28;45469;-47
2023/08/27 01:56:37;;;;;;;;;1.50;0.50;;;;;18.08;60.32;100697.63;5059081;28;45461;-45
2023/08/27 01:59:02;;;;;;;;;1.00;1.00;;;;;18.07;60.96;100690.56;5059240;28;45324;-46
2023/08/27 02:01:27;;;;;;;;;1.00;1.00;;;;;18.07;60.77;100690.56;5058768;28;47264;-45
2023/08/27 02:03:53;;;;;;;;;1.25;1.00;;;;;18.06;60.67;100690.78;5058947;28;45364;-45
2023/08/27 02:06:18;;;;;;;;;1.00;1.00;;;;;18.04;60.80;100687.47;5059089;28;45335;-46
2023/08/27 02:08:43;;;;;;;;;1.00;1.00;;;;;18.02;61.22;100695.72;5059093;28;45405;-45
2023/08/27 02:11:09;;;;;;;;;1.00;1.00;;;;;17.97;61.34;100694.66;5058813;28;46292;-43
2023/08/27 02:13:34;;;;;;;;;1.00;1.00;;;;;17.91;61.36;100696.28;5058673;28;45379;-46
2023/08/27 02:16:00;;;;;;;;;3.00;1.00;;;;;17.90;61.53;100689.22;5059106;28;45166;-46
2023/08/27 02:18:25;;;;;;;;;1.00;1.00;;;;;17.83;61.79;100693.72;5058917;28;45522;-47
2023/08/27 02:20:51;;;;;;;;;1.50;0.75;;;;;17.80;61.74;100696.81;5058709;28;45537;-48
2023/08/27 02:23:16;;;;;;;;;1.00;1.00;;;;;17.80;62.06;100704.88;5057471;28;45315;-46
2023/08/27 02:25:42;;;;;;;;;0.50;0.50;;;;;17.78;62.39;100707.78;5058473;28;45316;-45
2023/08/27 02:28:08;;;;;;;;;1.00;1.00;;;;;17.76;62.03;100703.59;5058855;28;45267;-47
2023/08/27 02:30:33;;;;;;;;;1.00;1.00;;;;;17.76;62.17;100708.97;5057357;28;45474;-48
2023/08/27 02:32:58;;;;;;;;;2.50;1.25;;;;;17.74;62.16;100703.81;5058294;28;45387;-47
2023/08/27 02:35:24;;;;;;;;;2.00;0.75;;;;;17.73;62.54;100703.94;5057184;28;45378;-44
2023/08/27 02:37:50;;;;;;;;;2.25;1.25;;;;;17.73;62.89;100702.09;5058710;28;45359;-45
2023/08/27 02:40:17;;;;;;;;;1.75;1.00;;;;;17.68;62.38;100694.59;5058406;28;45418;-44
2023/08/27 02:42:43;;;;;;;;;4.00;1.00;;;;;17.66;62.75;100695.84;5058134;28;45473;-44
2023/08/27 02:45:09;;;;;;;;;1.00;1.00;;;;;17.65;62.75;100686.91;5058629;28;45373;-42
2023/08/27 02:47:34;;;;;;;;;1.50;0.00;;;;;17.62;62.14;100689.19;5058338;28;45316;-47
2023/08/27 02:49:59;;;;;;;;;2.50;1.00;;;;;17.63;62.87;100698.91;5058143;28;46984;-44
2023/08/27 02:52:25;;;;;;;;;0.00;0.00;;;;;17.61;63.41;100709.03;5057973;28;45319;-45
2023/08/27 02:54:50;;;;;;;;;1.00;1.00;;;;;17.59;63.56;100700.31;5058302;28;45359;-43
2023/08/27 02:57:15;;;;;;;;;0.25;0.25;;;;;17.58;63.27;100701.34;5058458;28;45399;-42
2023/08/27 02:59:41;;;;;;;;;3.00;1.00;;;;;17.56;63.34;100698.84;5057958;28;45993;-43
2023/08/27 03:02:06;;;;;;;;;1.75;1.00;;;;;17.56;63.30;100706.09;5057835;28;45396;-44
2023/08/27 03:04:31;;;;;;;;;1.00;1.00;;;;;17.53;63.22;100693.88;5057754;28;45263;-45
2023/08/27 03:06:57;;;;;;;;;1.00;0.50;;;;;17.53;63.39;100704.63;5058311;28;45480;-44
2023/08/27 03:09:22;;;;;;;;;1.75;1.00;;;;;17.50;63.23;100702.31;5057799;28;46269;-43
2023/08/27 03:11:47;;;;;;;;;1.00;0.00;;;;;17.43;63.07;100701.41;5058001;28;45294;-44
2023/08/27 03:14:13;;;;;;;;;0.50;0.50;;;;;17.46;63.45;100701.88;5057775;28;45353;-45
2023/08/27 03:16:38;;;;;;;;;1.00;1.00;;;;;17.43;63.15;100698.72;5058076;28;45317;-45
2023/08/27 03:19:04;;;;;;;;;2.00;1.00;;;;;17.44;63.33;100705.75;5057443;28;45642;-43
2023/08/27 03:21:29;;;;;;;;;4.00;1.00;;;;;17.42;63.25;100710.50;5057663;28;45605;-44
2023/08/27 03:23:55;;;;;;;;;2.00;0.50;;;;;17.39;63.14;100708.19;5057880;28;45413;-44
2023/08/27 03:26:20;;;;;;;;;1.00;1.00;;;;;17.37;63.17;100708.41;5057833;28;45426;-42
2023/08/27 03:28:46;;;;;;;;;1.00;1.00;;;;;17.32;63.21;100709.97;5057646;28;47041;-42
2023/08/27 03:31:11;;;;;;;;;1.00;1.00;;;;;17.32;63.64;100718.91;5057475;28;45253;-42
2023/08/27 03:33:38;;;;;;;;;1.67;1.00;;;;;17.28;63.27;100720.31;5057542;28;45464;-44
2023/08/27 03:36:04;;;;;;;;;1.00;1.00;;;;;17.27;63.30;100723.16;5057467;28;45559;-43
2023/08/27 03:38:30;;;;;;;;;1.00;1.00;;;;;17.21;63.34;100716.72;5057153;28;46942;-43
2023/08/27 03:40:55;;;;;;;;;1.33;1.33;;;;;17.24;63.63;100724.41;5057519;28;45302;-42
2023/08/27 03:43:20;;;;;;;;;3.00;1.25;;;;;17.21;63.71;100722.91;5057323;28;45228;-43
2023/08/27 03:45:45;;;;;;;;;1.00;1.00;;;;;17.16;63.81;100711.91;5057846;28;45315;-45
2023/08/27 03:48:11;;;;;;;;;1.00;1.00;;;;;17.17;63.98;100718.94;5057202;28;45973;-45
2023/08/27 03:50:37;;;;;;;;;1.00;1.00;;;;;17.11;64.11;100713.53;5057318;28;45394;-44
2023/08/27 03:53:05;;;;;;;;;1.00;1.00;;;;;17.16;64.13;100733.41;5057322;28;45357;-45
2023/08/27 03:55:36;;;;;;;;;1.00;1.00;;;;;17.14;64.17;100731.94;5057274;28;45439;-44
2023/08/27 03:58:02;;;;;;;;;3.00;1.00;;;;;17.12;64.12;100734.00;5056851;28;46752;-49
2023/08/27 04:00:27;;;;;;;;;1.00;1.00;;;;;17.03;63.82;100722.53;5056970;28;45309;-45
2023/08/27 04:02:52;;;;;;;;;3.00;1.00;;;;;16.99;63.88;100723.91;5057330;28;45359;-44
2023/08/27 04:05:18;;;;;;;;;0.33;0.33;;;;;17.05;64.23;100735.75;5057686;28;45261;-42
2023/08/27 04:07:43;;;;;;;;;0.33;0.00;;;;;17.01;64.47;100727.25;5056995;28;46116;-41
2023/08/27 04:10:09;;;;;;;;;2.67;2.67;;;;;17.02;64.60;100736.13;5056817;28;45334;-43
2023/08/27 04:12:34;;;;;;;;;1.00;1.00;;;;;17.03;64.56;100737.81;5056997;28;45459;-45
2023/08/27 04:14:59;;;;;;;;;0.00;0.00;;;;;17.01;64.46;100746.03;5057304;28;45643;-43
2023/08/27 04:17:25;;;;;;;;;1.00;1.00;;;;;16.90;64.27;100733.13;5056648;28;46295;-45
2023/08/27 04:19:52;;;;;;;;;1.00;1.00;;;;;16.94;64.15;100739.78;5056566;28;45375;-45
2023/08/27 04:22:17;;;;;;;;;0.00;0.00;;;;;16.91;64.46;100737.47;5056796;28;45392;-42
2023/08/27 04:24:43;;;;;;;;;2.00;1.33;;;;;16.89;64.42;100734.13;5057138;28;45380;-45
2023/08/27 04:27:08;;;;;;;;;0.00;0.00;;;;;16.88;64.81;100745.88;5056447;28;46134;-44
2023/08/27 04:29:34;;;;;;;;;2.33;2.00;;;;;16.78;65.04;100731.94;5056673;28;45463;-45
2023/08/27 04:31:59;;;;;;;;;4.67;0.00;;;;;16.84;64.80;100755.34;5056834;28;45813;-47
2023/08/27 04:34:24;;;;;;;;;3.00;1.00;;;;;16.83;64.89;100756.38;5056379;28;45512;-46
2023/08/27 04:36:50;;;;;;;;;1.00;0.67;;;;;16.83;64.83;100754.53;5056703;28;45244;-46
2023/08/27 04:39:15;;;;;;;;;3.00;1.00;;;;;16.85;64.97;100754.31;5055567;28;45203;-47
2023/08/27 04:41:41;;;;;;;;;1.67;1.67;;;;;16.83;64.95;100746.47;5056693;28;45280;-46
2023/08/27 04:44:06;;;;;;;;;1.67;0.67;;;;;16.81;65.25;100751.19;5056721;28;45974;-43
2023/08/27 04:46:31;;;;;;;;;2.33;0.67;;;;;16.78;65.21;100745.38;5056183;28;46592;-45
2023/08/27 04:48:57;;;;;;;;;2.00;1.00;;;;;16.80;65.42;100757.56;5056305;28;45332;-49
2023/08/27 04:51:26;;;;;;;;;1.00;1.00;;;;;16.80;65.06;100759.44;5055999;28;45218;-46
2023/08/27 04:53:52;;;;;;;;;0.00;0.00;;;;;16.80;65.09;100762.94;5055973;28;45418;-47
2023/08/27 04:56:18;;;;;;;;;2.33;1.00;;;;;16.79;65.29;100763.97;5056061;28;45388;-43
2023/08/27 04:58:43;;;;;;;;;1.00;1.00;;;;;16.75;64.94;100759.16;5056277;28;45331;-43
2023/08/27 05:01:09;;;;;;;;;3.33;2.00;;;;;16.78;65.37;100769.53;5055023;28;45832;-44
2023/08/27 05:03:34;;;;;;;;;8.33;5.67;;;;;16.77;65.32;100767.84;5056165;28;45383;-48
2023/08/27 05:06:00;;;;;;;;;3.00;1.00;;;;;16.77;65.71;100765.16;5055693;28;47554;-45
2023/08/27 05:08:25;;;;;;;;;10.00;7.00;;;;;16.73;65.72;100763.88;5056193;28;45455;-45
2023/08/27 05:10:50;;;;;;;;;1.33;0.33;;;;;16.76;65.83;100768.88;5056270;28;45390;-46
2023/08/27 05:13:17;;;;;;;;;1.67;1.67;;;;;16.76;65.55;100771.56;5056236;28;45379;-42
2023/08/27 05:15:42;;;;;;;;;1.67;0.00;;;;;16.72;65.64;100757.63;5056034;28;45393;-41
2023/08/27 05:18:09;;;;;;;;;1.33;1.33;;;;;16.76;65.07;100768.88;5055822;28;45396;-44
2023/08/27 05:20:35;;;;;;;;;2.00;2.00;;;;;16.74;65.50;100774.44;5055841;28;45422;-44
2023/08/27 05:23:00;;;;;;;;;0.00;0.00;;;;;16.74;65.43;100770.94;5055894;28;45442;-43
2023/08/27 05:25:26;;;;;;;;;3.00;2.00;;;;;16.75;65.58;100777.97;5055655;28;46176;-45
2023/08/27 05:27:51;;;;;;;;;0.00;0.00;;;;;16.76;65.70;100772.41;5055803;28;45359;-42
2023/08/27 05:30:16;;;;;;;;;2.00;0.00;;;;;16.75;65.46;100770.75;5056069;28;45486;-45
2023/08/27 05:32:43;;;;;;;;;1.00;1.00;;;;;16.73;65.60;100763.88;5056016;28;45331;-44
2023/08/27 05:35:08;;;;;;;;;1.33;0.33;;;;;16.75;65.29;100768.03;5055392;28;45556;-42
2023/08/27 05:37:34;;;;;;;;;3.00;1.00;;;;;16.79;65.23;100774.72;5055794;28;45423;-45
2023/08/27 05:39:59;;;;;;;;;3.33;1.33;;;;;16.79;65.36;100774.72;5055705;28;45431;-44
2023/08/27 05:42:25;;;;;;;;;1.00;1.00;;;;;16.82;65.64;100782.41;5055939;28;45297;-51
2023/08/27 05:44:50;;;;;;;;;2.00;2.00;;;;;16.85;64.90;100778.50;5055701;28;45495;-44
2023/08/27 05:47:17;;;;;;;;;1.33;1.00;;;;;16.86;65.25;100780.19;5054055;28;49829;-44
2023/08/27 05:49:45;;;;;;;;;2.33;1.67;;;;;16.87;64.96;100784.53;5055735;28;45379;-46
2023/08/27 05:52:10;;;;;;;;;1.00;1.00;;;;;16.85;64.80;100779.31;5055712;28;45277;-45
2023/08/27 05:54:36;;;;;;;;;1.00;1.00;;;;;16.93;64.88;100781.09;5055402;28;45375;-47
2023/08/27 05:57:02;;;;;;;;;1.00;1.00;;;;;16.94;64.67;100782.78;5055341;28;47929;-43
2023/08/27 05:59:28;;;;;;;;;2.33;1.00;;;;;16.95;64.63;100793.31;5055754;28;45406;-45
2023/08/27 06:01:53;;;;;;;;;1.00;1.00;;;;;16.97;64.25;100787.75;5055750;28;45451;-42
2023/08/27 06:04:18;;;;;;;;;1.00;0.00;;;;;17.04;64.29;100798.59;5055601;28;45535;-44
2023/08/27 06:06:44;;;;;;;;;3.67;2.00;;;;;17.03;64.37;100796.94;5058860;28;45343;-40
2023/08/27 06:09:09;;;;;;;;;3.00;2.00;;;;;17.08;64.38;100794.53;5059383;28;45292;-45
2023/08/27 06:11:34;;;;;;;;;0.00;0.00;;;;;17.09;64.41;100796.19;5057976;28;45465;-45
2023/08/27 06:14:00;;;;;;;;;2.67;1.00;;;;;17.16;64.14;100789.88;5059010;28;46095;-43
2023/08/27 06:16:25;;;;;;;;;3.67;2.00;;;;;17.21;64.36;100790.13;5058895;28;45399;-45
2023/08/27 06:18:50;;;;;;;;;0.67;0.67;;;;;17.22;64.15;100788.25;5058936;28;45227;-44
2023/08/27 06:21:17;;;;;;;;;1.00;1.00;;;;;17.30;63.80;100804.28;5058881;28;45543;-45
2023/08/27 06:23:42;;;;;;;;;1.67;0.67;;;;;17.30;63.27;100790.84;5058650;28;46693;-45
2023/08/27 06:26:08;;;;;;;;;3.33;1.00;;;;;17.36;63.80;100795.47;5057418;28;45365;-46
2023/08/27 06:28:33;;;;;;;;;1.00;1.00;;;;;17.45;63.56;100799.72;5058739;28;45440;-45
2023/08/27 06:30:59;;;;;;;;;1.00;1.00;;;;;17.53;63.58;100805.97;5058443;28;45536;-46
2023/08/27 06:33:25;;;;;;;;;2.00;0.00;;;;;17.56;63.36;100795.66;5058803;28;46187;-44
2023/08/27 06:35:50;;;;;;;;;1.00;1.00;;;;;17.81;62.67;100811.47;5058282;28;45347;-46
2023/08/27 06:38:17;;;;;;;;;0.67;0.67;;;;;17.90;62.38;100811.16;5040519;28;45336;-47
2023/08/27 06:40:42;;;;;;;;;2.33;1.00;;;;;17.93;62.17;100810.75;5058710;28;45461;-45
2023/08/27 06:43:09;;;;;;;;;3.67;3.00;;;;;17.97;62.21;100813.91;5057971;28;45391;-44
2023/08/27 06:45:35;;;;;;;;;6.33;3.00;;;;;18.06;61.81;100815.44;5058370;28;45391;-45
2023/08/27 06:48:00;;;;;;;;;2.33;2.33;;;;;18.06;61.64;100812.75;5058435;28;45771;-43
2023/08/27 06:50:26;;;;;;;;;2.33;1.00;;;;;18.11;60.82;100806.78;5058363;28;45348;-47
2023/08/27 06:52:51;;;;;;;;;1.00;1.00;;;;;18.13;61.52;100813.63;5058009;28;45991;-41
2023/08/27 06:55:16;;;;;;;;;1.00;1.00;;;;;18.28;61.79;100812.72;5058457;28;45292;-44
2023/08/27 06:57:42;;;;;;;;;1.00;1.00;;;;;18.49;61.05;100819.91;5058588;28;45240;-44
2023/08/27 07:00:07;;;;;;;;;2.00;0.75;;;;;18.66;60.66;100830.16;5058474;28;45270;-45
2023/08/27 07:02:33;;;;;;;;;3.50;1.00;;;;;18.82;59.90;100812.06;5058184;28;45907;-41
2023/08/27 07:04:59;;;;;;;;;0.00;0.00;;;;;19.03;60.00;100819.22;5058103;28;45285;-42
2023/08/27 07:07:25;;;;;;;;;1.75;0.00;;;;;19.35;58.44;100823.94;5058223;28;45439;-41
2023/08/27 07:09:50;;;;;;;;;1.00;1.00;;;;;19.85;57.60;100826.38;5058352;28;45327;-44
2023/08/27 07:12:15;;;;;;;;;3.75;2.00;;;;;20.87;55.20;100814.25;5057666;28;46436;-44
2023/08/27 07:14:41;;;;;;;;;4.00;1.00;;;;;21.92;53.17;100812.09;5057928;28;45371;-43
2023/08/27 07:17:07;;;;;;;;;1.75;0.00;;;;;23.22;49.34;100827.50;5057697;28;45344;-42
2023/08/27 07:19:32;;;;;;;;;1.25;0.75;;;;;23.72;48.21;100819.13;5058000;28;45525;-43
2023/08/27 07:21:58;;;;;;;;;0.75;0.75;;;;;23.95;47.78;100830.06;5057804;28;45394;-44
2023/08/27 07:24:23;;;;;;;;;0.00;0.00;;;;;23.80;47.05;100830.50;5057669;28;45367;-45
2023/08/27 07:26:48;;;;;;;;;1.00;1.00;;;;;24.23;46.36;100832.16;5058060;28;45380;-43
2023/08/27 07:29:14;;;;;;;;;1.00;1.00;;;;;25.16;44.40;100821.44;5057820;28;45349;-42
2023/08/27 07:31:39;;;;;;;;;1.00;1.00;;;;;25.96;43.37;100818.66;5057423;28;46288;-44
2023/08/27 07:34:04;;;;;;;;;0.75;0.75;;;;;26.95;41.26;100820.66;5057360;28;45352;-42
2023/08/27 07:36:30;;;;;;;;;0.75;0.50;;;;;27.79;39.08;100822.22;5057421;28;45699;-43
2023/08/27 07:38:57;;;;;;;;;0.75;0.75;;;;;27.52;39.65;100824.94;5057946;28;45281;-46
2023/08/27 07:41:22;;;;;;;;;2.20;1.00;;;;;26.89;41.04;100820.88;5057508;28;47134;-47
2023/08/27 07:43:48;;;;;;;;;4.75;0.75;;;;;27.13;41.45;100822.28;5057634;28;45289;-46
2023/08/27 07:46:13;;;;;;;;;1.00;1.00;;;;;28.02;38.10;100827.34;5057423;28;45398;-46
2023/08/27 07:48:38;;;;;;;;;1.00;1.00;;;;;28.13;38.89;100822.78;5057624;28;45344;-44
2023/08/27 07:51:04;;;;;;;;;0.25;0.25;;;;;28.81;37.21;100821.03;5057089;28;54928;-44
2023/08/27 07:53:29;;;;;;;;;2.00;0.00;;;;;29.24;35.92;100810.00;5057238;28;45221;-44
2023/08/27 07:55:55;;;;;;;;;70.33;53.67;;;;;29.57;35.78;100811.50;5057266;28;45648;-45
2023/08/27 07:58:20;;;;;;;;;2.00;2.00;;;;;29.39;35.52;100812.81;5057491;28;45462;-46
2023/08/27 08:00:46;;;;;;;;;2.50;1.75;;;;;29.36;36.16;100810.59;5057134;28;46208;-49
2023/08/27 08:03:11;;;;;;;;;0.00;0.00;;;;;29.57;35.83;100817.81;5057368;28;45398;-47
2023/08/27 08:05:36;;;;;;;;;0.00;0.00;;;;;29.89;34.70;100807.72;5057119;28;45249;-46
2023/08/27 08:08:02;;;;;;;;;1.00;1.00;;;;;29.90;34.84;100825.81;5057469;28;45300;-46
2023/08/27 08:10:27;;;;;;;;;0.00;0.00;;;;;29.97;34.56;100818.94;5056764;28;47502;-46
2023/08/27 08:12:53;;;;;;;;;0.25;0.25;;;;;30.05;35.06;100810.19;5056958;28;45205;-48
2023/08/27 08:15:18;;;;;;;;;1.00;1.00;;;;;30.24;34.26;100802.22;5057326;28;45656;-47
2023/08/27 08:17:44;;;;;;;;;1.25;0.75;;;;;30.17;34.69;100803.59;5056994;28;45390;-45
2023/08/27 08:20:10;;;;;;;;;1.00;1.00;;;;;30.62;34.41;100796.38;5056402;28;45494;-43
2023/08/27 08:22:35;;;;;;;;;2.80;1.00;;;;;30.89;33.14;100796.88;5056794;28;45319;-43
2023/08/27 08:25:01;;;;;;;;;0.00;0.00;;;;;31.26;32.56;100799.16;5057123;28;45306;-45
2023/08/27 08:27:26;;;;;;;;;1.00;1.00;;;;;31.16;32.52;100785.47;5054785;28;45476;-46
2023/08/27 08:29:52;;;;;;;;;0.00;0.00;;;;;31.10;33.29;100794.00;5056333;28;45381;-46
2023/08/27 08:32:17;;;;;;;;;0.50;0.50;;;;;31.29;32.33;100787.63;5056781;28;45355;-47
2023/08/27 08:34:42;;;;;;;;;0.75;0.75;;;;;31.29;32.07;100790.38;5056730;28;45557;-45
2023/08/27 08:37:08;;;;;;;;;1.00;0.00;;;;;32.09;31.54;100796.69;5056690;28;45576;-48
2023/08/27 08:39:34;;;;;;;;;0.25;0.25;;;;;33.49;28.92;100796.44;5056207;28;46331;-48
2023/08/27 08:42:14;;;;;;;;;2.50;0.00;;;;;35.43;27.86;100790.84;5056482;28;45665;-45
2023/08/27 08:44:49;;;;;;;;;1.60;1.00;;;;;35.45;27.55;100785.84;5056759;28;45322;-50
2023/08/27 08:47:20;;;;;;;;;0.80;0.80;;;;;36.71;26.22;100790.38;5056693;28;45313;-50
2023/08/27 08:49:52;;;;;;;;;0.20;0.20;;;;;38.17;23.49;100788.00;5056461;28;45359;-48
2023/08/27 08:52:21;;;;;;;;;0.00;0.00;;;;;38.33;23.33;100789.09;5056557;28;45327;-46
2023/08/27 08:54:51;;;;;;;;;0.80;0.80;;;;;38.32;24.32;100781.13;5055089;28;45483;-45
2023/08/27 08:57:16;;;;;;;;;0.00;0.00;;;;;39.72;21.85;100788.25;5056783;28;45372;-46
2023/08/27 08:59:44;;;;;;;;;3.25;0.00;;;;;40.98;20.86;100798.91;5055848;28;45506;-44
2023/08/27 09:02:11;;;;;;;;;1.20;0.00;;;;;38.89;22.23;100795.38;5056240;28;45373;-44
2023/08/27 09:04:37;;;;;;;;;0.60;0.00;;;;;37.22;23.41;100803.56;5056613;28;45355;-48
2023/08/27 09:07:04;;;;;;;;;2.20;1.00;;;;;35.87;24.94;100789.28;5056346;28;45459;-45
2023/08/27 09:09:31;;;;;;;;;1.00;1.00;;;;;34.64;26.11;100787.56;5056248;28;46467;-48
2023/08/27 09:11:59;;;;;;;;;0.00;0.00;;;;;36.07;24.60;100798.19;5056212;28;45366;-45
2023/08/27 09:14:24;;;;;;;;;0.00;0.00;;;;;37.62;23.38;100785.94;5055977;28;45185;-46
2023/08/27 09:16:50;;;;;;;;;0.00;0.00;;;;;38.07;22.42;100805.03;5056838;28;45484;-52
2023/08/27 09:19:16;;;;;;;;;0.00;0.00;;;;;37.04;23.42;100801.91;5055990;28;46297;-45
2023/08/27 09:21:41;;;;;;;;;0.00;0.00;;;;;35.79;24.43;100803.06;5056145;28;45412;-49
2023/08/27 09:24:07;;;;;;;;;5.25;3.50;;;;;35.44;25.41;100811.88;5055987;28;45854;-49
2023/08/27 09:26:32;;;;;;;;;1.00;0.00;;;;;37.80;22.78;100806.19;5056506;28;45870;-51
2023/08/27 09:28:59;;;;;;;;;0.00;0.00;;;;;37.57;22.92;100813.88;5056122;28;45360;-50
2023/08/27 09:31:38;;;;;;;;;3.00;0.00;;;;;37.29;23.71;100825.25;5055824;28;45345;-47
2023/08/27 09:34:04;;;;;;;;;0.00;0.00;;;;;37.83;23.63;100811.88;5055845;28;45470;-47
2023/08/27 09:36:31;;;;;;;;;1.50;0.50;;;;;38.20;22.81;100812.34;5055716;28;45457;-49
2023/08/27 09:38:57;;;;;;;;;0.20;0.00;;;;;36.31;23.77;100818.03;5056673;28;46327;-46
2023/08/27 09:41:22;;;;;;;;;1.25;0.00;;;;;38.70;22.39;100828.34;5059326;28;45383;-46
2023/08/27 09:43:52;;;;;;;;;1.75;1.00;;;;;41.04;20.68;100817.00;5059665;28;45371;-45
2023/08/27 09:46:18;;;;;;;;;0.00;0.00;;;;;42.80;18.31;100824.34;5059745;28;45572;-48
2023/08/27 09:48:43;;;;;;;;;2.75;1.00;;;;;43.56;17.69;100815.63;5059061;28;45995;-51
2023/08/27 09:51:09;;;;;;;;;2.00;0.75;;;;;44.88;17.98;100817.19;5058979;28;45334;-48
2023/08/27 09:53:35;;;;;;;;;1.00;1.00;;;;;45.34;16.36;100826.28;5059411;28;45373;-52
2023/08/27 09:56:03;;;;;;;;;0.00;0.00;;;;;46.38;16.82;100814.22;5059466;28;45593;-50
2023/08/27 09:58:29;;;;;;;;;0.00;0.00;;;;;44.02;17.18;100810.94;5059238;28;45597;-53
2023/08/27 10:01:00;;;;;;;;;0.00;0.00;;;;;41.85;18.47;100812.28;5059128;28;45414;-52
2023/08/27 10:03:28;;;;;;;;;1.20;0.20;;;;;43.46;17.61;100822.66;5059095;28;45377;-49
2023/08/27 10:05:54;;;;;;;;;8.80;5.00;;;;;43.98;16.90;100826.09;5059129;28;45392;-51
2023/08/27 10:08:20;;;;;;;;;7.75;4.50;;;;;44.80;15.80;100825.53;5058984;28;46077;-52
2023/08/27 10:10:45;;;;;;;;;42.50;33.75;;;;;44.83;16.13;100820.34;5058948;28;45368;-47
2023/08/27 10:13:14;;;;;;;;;15.80;13.60;;;;;43.39;16.74;100828.06;5058805;28;45454;-48
2023/08/27 10:15:40;;;;;;;;;13.40;8.60;;;;;42.39;17.72;100836.88;5059265;28;45344;-47
2023/08/27 10:18:11;;;;;;;;;6.60;6.00;;;;;40.71;18.96;100831.06;5058723;28;46858;-46
2023/08/27 10:20:38;;;;;;;;;2.20;2.20;;;;;39.76;19.94;100838.50;5058653;28;45353;-47
2023/08/27 10:23:04;;;;;;;;;0.80;0.80;;;;;38.87;20.72;100841.38;5058924;28;45289;-47
2023/08/27 10:25:32;;;;;;;;;0.00;0.00;;;;;37.11;21.99;100845.78;5058859;28;45188;-50
2023/08/27 10:27:58;;;;;;;;;0.00;0.00;;;;;36.27;22.84;100846.69;5058883;28;45492;-48
2023/08/27 10:30:25;;;;;;;;;0.25;0.25;;;;;35.26;24.06;100837.72;5058740;28;45513;-50
2023/08/27 10:32:50;;;;;;;;;1.60;0.80;;;;;36.59;22.37;100848.38;5058542;28;45493;-51
2023/08/27 10:35:16;;;;;;;;;0.00;0.00;;;;;39.11;20.76;100836.00;5058625;28;45445;-46
2023/08/27 10:37:48;;;;;;;;;0.00;0.00;;;;;41.07;19.28;100845.03;5058171;28;46473;-50
2023/08/27 10:40:15;;;;;;;;;0.60;0.00;;;;;42.84;17.62;100847.63;5058483;28;45449;-49
2023/08/27 10:42:41;;;;;;;;;0.00;0.00;;;;;43.91;16.24;100849.22;5058289;28;45466;-46
2023/08/27 10:45:18;;;;;;;;;0.00;0.00;;;;;44.84;16.45;100850.03;5058470;28;45313;-46
2023/08/27 10:48:11;;;;;;;;;0.60;0.60;;;;;45.99;14.86;100842.75;5058041;28;45425;-52
2023/08/27 10:51:10;;;;;;;;;0.00;0.00;;;;;45.13;15.83;100845.66;5057613;28;45746;-46
2023/08/27 10:53:49;;;;;;;;;1.80;0.00;;;;;43.86;16.64;100845.88;5058228;28;45579;-52
2023/08/27 10:56:26;;;;;;;;;0.80;0.80;;;;;41.41;18.33;100844.88;5058344;28;45407;-45
2023/08/27 10:58:52;;;;;;;;;1.80;0.20;;;;;40.99;18.20;100851.56;5056615;28;46523;-51
2023/08/27 11:01:20;;;;;;;;;0.25;0.00;;;;;42.53;17.04;100836.44;5058236;28;45372;-52
2023/08/27 11:04:03;;;;;;;;;0.00;0.00;;;;;42.04;17.60;100842.31;5056797;28;45394;-53
2023/08/27 11:06:40;;;;;;;;;0.00;0.00;;;;;41.19;17.90;100843.41;5058020;28;45248;-54
2023/08/27 11:09:20;;;;;;;;;0.00;0.00;;;;;38.84;19.50;100837.31;5057626;28;45263;-42
2023/08/27 11:11:49;;;;;;;;;0.20;0.00;;;;;37.30;20.50;100840.78;5057798;28;45418;-55
2023/08/27 11:14:16;;;;;;;;;0.40;0.20;;;;;39.59;18.78;100831.91;5058046;28;45415;-57
2023/08/27 11:16:48;;;;;;;;;1.40;0.00;;;;;41.77;17.60;100827.19;5056589;28;45595;-55
2023/08/27 11:19:26;;;;;;;;;0.40;0.40;;;;;43.57;16.23;100826.50;5057589;28;46495;-53
2023/08/27 11:21:51;;;;;;;;;0.00;0.00;;;;;44.97;15.30;100814.97;5057905;28;45536;-46